Time;durP1;ratioP1;P1;durP2;ratioP2;P2;SDS_P1;SDS_P2;PMS_P1;PMS_P2;Temp;Humidity;BMP_temperature;BMP_pressure;BME280_temperature;BME280_humidity;BME280_pressure;Samples;Min_cycle;Max_cycle;Signal;HPM_P1;HPM_P2
2023/03/23 00:01:22;;;;;;;13.85;7.30;;;;;;;11.71;100.00;99979.75;5006357;28;20046;-82
2023/03/23 00:03:53;;;;;;;16.38;6.30;;;;;;;11.71;100.00;99984.25;5022065;28;20046;-83
2023/03/23 00:06:21;;;;;;;14.57;7.00;;;;;;;11.78;100.00;99986.38;5023848;28;20041;-83
2023/03/23 00:08:50;;;;;;;12.82;6.78;;;;;;;11.77;100.00;99981.13;5020473;28;20042;-82
2023/03/23 00:11:21;;;;;;;13.95;6.50;;;;;;;11.80;100.00;99989.78;5028735;28;20107;-84
2023/03/23 00:13:52;;;;;;;15.50;6.40;;;;;;;11.84;100.00;99987.72;5012426;28;20057;-81
2023/03/23 00:16:28;;;;;;;12.27;6.13;;;;;;;11.87;100.00;99989.31;5014506;28;20072;-83
2023/03/23 00:18:55;;;;;;;9.38;5.20;;;;;;;11.88;100.00;99977.66;5029431;28;20033;-82
2023/03/23 00:21:34;;;;;;;12.20;5.85;;;;;;;11.88;100.00;99970.47;5027916;28;20495;-82
2023/03/23 00:24:10;;;;;;;15.85;6.38;;;;;;;11.87;100.00;99968.75;5028050;28;20441;-83
2023/03/23 00:26:42;;;;;;;12.68;5.72;;;;;;;11.82;100.00;99973.63;5024028;28;20037;-81
2023/03/23 00:29:29;;;;;;;12.90;6.15;;;;;;;11.84;100.00;99977.03;5028890;28;20486;-82
2023/03/23 00:31:57;;;;;;;10.80;5.75;;;;;;;11.83;100.00;99975.31;5044071;28;20109;-82
2023/03/23 00:34:24;;;;;;;11.40;6.07;;;;;;;11.86;100.00;99967.06;5029343;28;20124;-84
2023/03/23 00:36:56;;;;;;;11.75;5.32;;;;;;;11.86;100.00;99964.41;5020552;28;20493;-83
2023/03/23 00:39:26;;;;;;;15.48;5.88;;;;;;;11.86;100.00;99955.53;5012369;28;20037;-80
2023/03/23 00:42:00;;;;;;;11.00;5.63;;;;;;;11.87;100.00;99960.75;5022747;28;20033;-82
2023/03/23 00:44:34;;;;;;;8.88;5.32;;;;;;;11.91;100.00;99956.03;5033305;28;20038;-81
2023/03/23 00:47:01;;;;;;;14.80;5.90;;;;;;;11.93;100.00;99964.84;5030905;28;20047;-83
2023/03/23 00:49:27;;;;;;;10.32;5.57;;;;;;;11.94;100.00;99962.03;5027473;28;20136;-81
2023/03/23 00:51:56;;;;;;;13.80;6.18;;;;;;;11.74;100.00;99914.50;5026324;28;20037;-84
2023/03/23 00:54:24;;;;;;;10.50;6.03;;;;;;;11.95;100.00;99952.19;5029150;28;20030;-82
2023/03/23 00:56:51;;;;;;;12.35;5.03;;;;;;;11.96;100.00;99946.72;5029869;28;20033;-83
2023/03/23 00:59:18;;;;;;;9.38;5.20;;;;;;;11.97;100.00;99940.41;5026681;28;20507;-84
2023/03/23 01:01:45;;;;;;;9.98;4.65;;;;;;;11.96;100.00;99932.50;5006221;28;20037;-84
2023/03/23 01:04:16;;;;;;;10.45;4.40;;;;;;;11.94;100.00;99929.09;5009874;28;20045;-82
2023/03/23 01:06:44;;;;;;;7.97;4.75;;;;;;;11.96;100.00;99944.03;5011584;28;20050;-81
2023/03/23 01:09:49;;;;;;;10.07;4.43;;;;;;;11.97;100.00;99942.22;5011228;28;20034;-85
2023/03/23 01:12:15;;;;;;;10.07;4.43;;;;;;;11.96;100.00;99943.19;5028128;28;20121;-83
2023/03/23 01:14:42;;;;;;;10.85;5.00;;;;;;;11.94;100.00;99954.00;5014123;28;20026;-84
2023/03/23 01:17:09;;;;;;;8.90;5.05;;;;;;;11.93;100.00;99949.63;5023998;28;20053;-81
2023/03/23 01:19:56;;;;;;;11.82;4.72;;;;;;;11.95;100.00;99946.84;5022050;28;20034;-83
2023/03/23 01:22:22;;;;;;;7.95;4.30;;;;;;;11.95;100.00;99918.28;5027269;28;20030;-80
2023/03/23 01:24:49;;;;;;;8.35;4.93;;;;;;;11.93;100.00;99914.03;5030947;28;20025;-84
2023/03/23 01:27:15;;;;;;;15.75;4.63;;;;;;;11.93;100.00;99904.16;5011983;28;20055;-85
2023/03/23 01:29:41;;;;;;;11.73;5.07;;;;;;;11.94;100.00;99915.72;5013030;28;20037;-85
2023/03/23 01:32:09;;;;;;;17.35;5.20;;;;;;;11.93;100.00;99908.66;4993908;28;20033;-82
2023/03/23 01:34:36;;;;;;;8.48;3.92;;;;;;;11.90;100.00;99901.72;5041127;28;20054;-82
2023/03/23 01:37:02;;;;;;;9.18;4.50;;;;;;;11.91;100.00;99908.78;5010450;28;20128;-80
2023/03/23 01:39:29;;;;;;;9.88;4.30;;;;;;;11.92;100.00;99904.28;5023928;28;20489;-81
2023/03/23 01:41:55;;;;;;;11.50;4.88;;;;;;;11.91;100.00;99908.78;5024927;28;20038;-81
2023/03/23 01:44:22;;;;;;;9.93;4.68;;;;;;;11.92;100.00;99904.28;5015252;28;20120;-83
2023/03/23 01:46:57;;;;;;;8.13;4.00;;;;;;;11.95;100.00;99910.25;5027924;28;20040;-81
2023/03/23 01:49:30;;;;;;;9.05;5.13;;;;;;;11.99;100.00;99911.72;4989370;28;20414;-81
2023/03/23 01:52:02;;;;;;;7.50;4.28;;;;;;;12.00;100.00;99918.78;5030851;28;20029;-82
2023/03/23 01:54:29;;;;;;;11.48;4.57;;;;;;;11.97;100.00;99907.47;5016545;28;20017;-81
2023/03/23 01:57:19;;;;;;;8.18;3.95;;;;;;;11.97;100.00;99902.13;5013530;28;20041;-84
2023/03/23 01:59:49;;;;;;;9.35;4.75;;;;;;;11.94;100.00;99892.47;5009107;28;20131;-79
2023/03/23 02:02:25;;;;;;;11.25;4.25;;;;;;;11.92;100.00;99889.06;5006975;28;20116;-83
2023/03/23 02:04:57;;;;;;;7.80;4.80;;;;;;;11.94;100.00;99895.16;5028882;28;20164;-80
2023/03/23 02:07:23;;;;;;;;;;;;;;;11.95;100.00;99888.00;5010932;28;20037;-82
2023/03/23 02:09:51;;;;;;;10.73;4.63;;;;;;;11.96;100.00;99877.16;5038690;28;19955;-81
2023/03/23 02:12:18;;;;;;;6.47;4.22;;;;;;;11.94;100.00;99871.09;5010603;28;20048;-80
2023/03/23 02:14:46;;;;;;;5.57;3.78;;;;;;;11.92;100.00;99882.88;5010571;28;20049;-81
2023/03/23 02:17:33;;;;;;;8.43;4.25;;;;;;;11.95;100.00;99883.50;5020500;28;20850;-80
2023/03/23 02:20:06;;;;;;;8.35;3.95;;;;;;;11.95;100.00;99896.03;5026396;28;20496;-83
2023/03/23 02:22:55;;;;;;;13.25;4.00;;;;;;;11.96;100.00;99895.03;5025293;28;20264;-81
2023/03/23 02:25:29;;;;;;;10.15;4.20;;;;;;;11.95;100.00;99885.34;5018449;28;20088;-83
2023/03/23 02:28:39;;;;;;;8.23;4.30;;;;;;;11.96;100.00;99890.53;5017601;28;20026;-83
2023/03/23 02:31:11;;;;;;;7.47;4.13;;;;;;;11.96;100.00;99887.03;4974394;28;20034;-82
2023/03/23 02:34:17;;;;;;;6.40;3.60;;;;;;;11.97;100.00;99900.28;4982001;28;20066;-83
2023/03/23 02:37:05;;;;;;;8.90;4.85;;;;;;;12.00;100.00;99893.84;5011879;28;20375;-82
2023/03/23 02:39:37;;;;;;;9.30;4.07;;;;;;;11.95;100.00;99878.16;5024933;28;20057;-81
2023/03/23 02:42:04;;;;;;;8.05;4.93;;;;;;;11.96;100.00;99890.53;5006089;28;20141;-82
2023/03/23 02:44:32;;;;;;;7.78;4.72;;;;;;;11.97;100.00;99889.59;5022906;28;20030;-82
2023/03/23 02:47:00;;;;;;;12.10;4.50;;;;;;;12.01;100.00;99883.03;5029860;28;20035;-83
2023/03/23 02:49:30;;;;;;;6.28;3.95;;;;;;;12.03;100.00;99898.97;5028080;28;20454;-83
2023/03/23 02:51:59;;;;;;;5.97;3.70;;;;;;;12.05;100.00;99885.47;5009424;28;20463;-80
2023/03/23 02:54:26;;;;;;;6.45;3.63;;;;;;;12.04;100.00;99884.63;5011163;28;20084;-81
2023/03/23 02:56:55;;;;;;;6.50;3.55;;;;;;;12.04;100.00;99889.97;5024079;28;20032;-82
2023/03/23 02:59:26;;;;;;;7.15;3.60;;;;;;;12.02;100.00;99867.81;5021441;28;20030;-83
2023/03/23 03:02:07;;;;;;;6.65;3.53;;;;;;;12.05;100.00;99883.63;5015847;28;20525;-81
2023/03/23 03:04:34;;;;;;;9.38;3.47;;;;;;;12.08;100.00;99866.50;5025506;28;20375;-81
2023/03/23 03:07:22;;;;;;;9.63;4.22;;;;;;;12.09;100.00;99878.91;5009047;28;20055;-82
2023/03/23 03:10:11;;;;;;;9.98;2.78;;;;;;;12.09;100.00;99882.44;5007907;28;20037;-80
2023/03/23 03:16:12;;;;;;;8.75;3.10;;;;;;;12.09;100.00;99871.72;5021436;28;20514;-81
2023/03/23 03:18:56;;;;;;;9.05;2.90;;;;;;;12.07;100.00;99871.00;5022401;28;20116;-79
2023/03/23 03:21:25;;;;;;;11.85;3.30;;;;;;;12.11;100.00;99861.75;5019780;28;20120;-81
2023/03/23 03:23:56;;;;;;;9.13;3.25;;;;;;;12.08;100.00;99861.13;5031230;28;20446;-82
2023/03/23 03:26:26;;;;;;;12.32;3.33;;;;;;;12.12;100.00;99851.94;5013818;28;20030;-81
2023/03/23 03:28:55;;;;;;;9.18;3.20;;;;;;;12.12;100.00;99858.13;5010855;28;20037;-80
2023/03/23 03:31:29;;;;;;;8.55;2.95;;;;;;;12.17;100.00;99849.72;5028076;28;20044;-81
2023/03/23 03:33:56;;;;;;;9.40;3.05;;;;;;;12.17;100.00;99847.06;5012204;28;20029;-83
2023/03/23 03:36:34;;;;;;;9.27;2.70;;;;;;;12.17;100.00;99849.72;5008912;28;20061;-83
2023/03/23 03:39:05;;;;;;;9.55;3.45;;;;;;;12.11;100.00;99844.84;4996064;28;20021;-78
2023/03/23 03:41:31;;;;;;;10.38;3.03;;;;;;;12.11;100.00;99844.84;5025729;28;20034;-81
2023/03/23 03:43:58;;;;;;;4.60;2.65;;;;;;;12.16;100.00;99842.69;5024117;28;20514;-82
2023/03/23 03:46:27;;;;;;;8.90;2.92;;;;;;;12.17;100.00;99863.09;5025371;28;20033;-81
2023/03/23 03:48:54;;;;;;;9.88;2.80;;;;;;;11.99;100.00;99844.84;5026318;28;20034;-79
2023/03/23 03:51:21;;;;;;;10.77;3.03;;;;;;;11.74;100.00;99863.69;5021042;28;20431;-81
2023/03/23 03:53:50;;;;;;;7.40;3.00;;;;;;;11.61;100.00;99864.66;5031942;28;20029;-80
2023/03/23 03:56:16;;;;;;;8.52;3.97;;;;;;;11.54;100.00;99860.72;5025456;28;20045;-80
2023/03/23 03:58:50;;;;;;;7.18;3.20;;;;;;;11.60;100.00;99859.41;5021107;28;20038;-80
2023/03/23 04:01:37;;;;;;;9.45;3.47;;;;;;;11.53;100.00;99868.84;5019584;28;20516;-80
2023/03/23 04:04:06;;;;;;;10.70;3.50;;;;;;;11.40;100.00;99859.06;5026577;28;20523;-80
2023/03/23 04:06:37;;;;;;;;;;;;;;;11.31;100.00;99861.56;5009466;28;20064;-81
2023/03/23 04:09:06;;;;;;;10.32;3.45;;;;;;;11.27;100.00;99860.94;5052149;28;19963;-82
2023/03/23 04:11:33;;;;;;;9.75;3.75;;;;;;;11.25;100.00;99863.72;5008911;28;20088;-79
2023/03/23 04:14:20;;;;;;;10.45;3.30;;;;;;;11.30;100.00;99857.22;5023318;28;20033;-80
2023/03/23 04:16:46;;;;;;;7.90;3.22;;;;;;;11.38;100.00;99862.84;5026844;28;20052;-81
2023/03/23 04:19:12;;;;;;;7.93;3.17;;;;;;;11.36;100.00;99859.44;5020056;28;20048;-82
2023/03/23 04:21:40;;;;;;;11.68;4.07;;;;;;;11.30;100.00;99857.22;4996506;28;20076;-80
2023/03/23 04:24:06;;;;;;;12.00;3.55;;;;;;;11.30;100.00;99854.56;5020385;28;20613;-81
2023/03/23 04:26:33;;;;;;;8.93;3.70;;;;;;;11.36;100.00;99867.44;5012811;28;20046;-81
2023/03/23 04:29:06;;;;;;;11.40;3.58;;;;;;;11.42;100.00;99880.34;4993856;28;20063;-80
2023/03/23 04:31:52;;;;;;;12.07;3.03;;;;;;;11.47;100.00;99880.84;5005410;28;20087;-81
2023/03/23 04:34:42;;;;;;;11.25;3.58;;;;;;;11.46;100.00;99876.47;5024550;28;20025;-80
2023/03/23 04:37:13;;;;;;;12.95;3.50;;;;;;;11.49;100.00;99881.59;5009514;28;20104;-81
2023/03/23 04:39:41;;;;;;;10.75;2.70;;;;;;;11.53;100.00;99871.53;5029675;28;20498;-81
2023/03/23 04:42:09;;;;;;;14.35;2.97;;;;;;;11.60;100.00;99900.34;4993059;28;20048;-80
2023/03/23 04:45:10;;;;;;;10.27;2.67;;;;;;;11.61;100.00;99882.47;5039401;28;20045;-83
2023/03/23 04:47:40;;;;;;;12.30;3.38;;;;;;;11.62;100.00;99895.75;4990404;28;20035;-83
2023/03/23 04:50:13;;;;;;;18.65;3.28;;;;;;;11.61;100.00;99902.06;5010403;28;20033;-84
2023/03/23 04:52:44;;;;;;;11.75;2.88;;;;;;;11.66;100.00;99909.72;5025995;28;20052;-82
2023/03/23 04:55:12;;;;;;;13.70;3.00;;;;;;;11.71;100.00;99899.56;5025771;28;20064;-80
2023/03/23 04:57:42;;;;;;;;;;;;;;;11.62;100.00;99916.28;5027997;28;20597;-81
2023/03/23 05:00:37;;;;;;;16.85;4.18;;;;;;;11.24;100.00;99925.31;5023810;28;19944;-79
2023/03/23 05:03:07;;;;;;;19.98;3.78;;;;;;;11.09;100.00;99927.28;5010517;28;20084;-79
2023/03/23 05:05:34;;;;;;;18.63;3.42;;;;;;;10.99;100.00;99915.53;5023392;28;20057;-83
2023/03/23 05:08:05;;;;;;;11.75;3.30;;;;;;;10.88;100.00;99918.13;5009715;28;20029;-83
2023/03/23 05:10:35;;;;;;;15.82;3.90;;;;;;;10.81;100.00;99923.03;5012248;28;20071;-81
2023/03/23 05:13:07;;;;;;;12.52;3.33;;;;;;;10.77;100.00;99927.78;5025745;28;20044;-80
2023/03/23 05:15:34;;;;;;;12.43;3.20;;;;;;;10.76;100.00;99927.88;5027029;28;20045;-80
2023/03/23 05:18:02;;;;;;;14.95;4.07;;;;;;;10.78;100.00;99934.81;5026559;28;20037;-80
2023/03/23 05:20:31;;;;;;;15.23;3.50;;;;;;;10.79;100.00;99931.19;5029629;28;20502;-81
2023/03/23 05:23:03;;;;;;;14.48;3.55;;;;;;;10.81;100.00;99929.25;5014863;28;20025;-79
2023/03/23 05:25:39;;;;;;;16.52;3.85;;;;;;;10.81;100.00;99941.72;5022815;28;20049;-82
2023/03/23 05:28:12;;;;;;;15.27;3.97;;;;;;;10.65;100.00;99949.97;5025247;28;20061;-81
2023/03/23 05:30:55;;;;;;;11.75;3.75;;;;;;;10.53;100.00;99946.38;5014956;28;20038;-83
2023/03/23 05:33:22;;;;;;;15.38;3.92;;;;;;;10.42;100.00;99944.44;5010860;28;20069;-81
2023/03/23 05:36:28;;;;;;;16.63;4.68;;;;;;;10.37;100.00;99957.22;5028885;28;20025;-84
2023/03/23 05:39:12;;;;;;;17.27;4.30;;;;;;;10.32;100.00;99964.69;5009147;28;20092;-85
2023/03/23 05:42:00;;;;;;;15.43;4.10;;;;;;;10.32;100.00;99961.16;5029628;28;20029;-85
2023/03/23 05:44:35;;;;;;;15.68;4.55;;;;;;;10.32;100.00;99958.50;5018963;28;20048;-85
2023/03/23 05:47:04;;;;;;;17.33;4.60;;;;;;;10.34;100.00;99969.91;5008521;28;20077;-86
2023/03/23 05:49:30;;;;;;;14.85;4.70;;;;;;;10.35;100.00;99975.16;5030351;28;20047;-83
2023/03/23 05:51:57;;;;;;;16.40;5.60;;;;;;;10.40;100.00;99981.03;5030847;28;20043;-81
2023/03/23 05:54:26;;;;;;;23.30;4.88;;;;;;;10.42;100.00;99976.44;5012523;28;20033;-82
2023/03/23 05:56:54;;;;;;;20.20;4.97;;;;;;;10.44;100.00;99979.88;5015124;28;20360;-82
2023/03/23 05:59:35;;;;;;;17.08;5.38;;;;;;;10.44;100.00;99968.34;5007579;28;20115;-82
2023/03/23 06:02:03;;;;;;;17.13;4.45;;;;;;;10.41;100.00;99968.53;5026879;28;20577;-82
2023/03/23 06:04:29;;;;;;;20.65;4.43;;;;;;;10.39;100.00;99973.97;5019083;28;20117;-83
2023/03/23 06:07:14;;;;;;;20.65;5.03;;;;;;;10.38;100.00;99980.28;4997597;28;20037;-85
2023/03/23 06:09:47;;;;;;;17.65;5.25;;;;;;;10.35;100.00;99980.50;5012487;28;20041;-82
2023/03/23 06:12:14;;;;;;;21.08;5.00;;;;;;;10.36;100.00;99981.34;5020646;28;20075;-83
2023/03/23 06:15:03;;;;;;;23.33;5.38;;;;;;;10.37;100.00;99993.72;5017535;28;20049;-83
2023/03/23 06:17:55;;;;;;;22.60;5.45;;;;;;;10.39;100.00;99994.47;5023517;28;20060;-83
2023/03/23 06:20:24;;;;;;;22.88;5.35;;;;;;;10.38;100.00;99998.09;5019862;28;20160;-82
2023/03/23 06:22:52;;;;;;;15.25;4.35;;;;;;;10.40;100.00;100001.50;5009462;28;20087;-81
2023/03/23 06:25:27;;;;;;;22.67;5.40;;;;;;;10.38;100.00;99992.75;5028207;28;20094;-82
2023/03/23 06:27:53;;;;;;;15.27;5.03;;;;;;;10.36;100.00;100000.88;5023289;28;20382;-84
2023/03/23 06:30:20;;;;;;;14.63;5.32;;;;;;;10.35;100.00;100006.31;5010219;28;20488;-79
2023/03/23 06:32:47;;;;;;;20.95;4.72;;;;;;;10.35;100.00;100012.50;5012669;28;20141;-83
2023/03/23 06:35:15;;;;;;;16.83;5.88;;;;;;;10.38;100.00;100024.78;5010134;28;20068;-80
2023/03/23 06:38:10;;;;;;;18.75;5.35;;;;;;;10.41;100.00;100022.75;4992932;28;20087;-82
2023/03/23 06:40:46;;;;;;;19.60;5.75;;;;;;;10.43;100.00;100015.50;5007659;28;20053;-81
2023/03/23 06:43:15;;;;;;;21.13;6.93;;;;;;;10.45;100.00;100021.59;5025259;28;20029;-82
2023/03/23 06:45:50;;;;;;;20.70;5.70;;;;;;;10.47;100.00;100038.38;5032284;28;20037;-84
2023/03/23 06:48:35;;;;;;;17.73;6.22;;;;;;;10.53;100.00;100028.22;5027830;28;20045;-82
2023/03/23 06:51:02;;;;;;;25.40;6.53;;;;;;;10.60;100.00;100029.50;5037011;28;20044;-85
2023/03/23 06:53:30;;;;;;;22.40;6.05;;;;;;;10.61;100.00;100029.41;5005584;28;20144;-81
2023/03/23 06:56:20;;;;;;;18.65;5.22;;;;;;;10.72;100.00;100028.69;5011110;28;20069;-81
2023/03/23 06:58:48;;;;;;;20.38;5.60;;;;;;;10.74;100.00;100032.09;5039695;28;20033;-82
2023/03/23 07:01:14;;;;;;;21.83;5.70;;;;;;;10.56;100.00;99998.66;5008167;28;20033;-81
2023/03/23 07:03:49;;;;;;;19.45;6.60;;;;;;;10.84;100.00;100025.13;5009592;28;20044;-82
2023/03/23 07:06:21;;;;;;;22.13;5.65;;;;;;;10.90;100.00;100021.19;5022502;28;20499;-82
2023/03/23 07:08:54;;;;;;;22.80;5.88;;;;;;;10.93;100.00;100022.81;5020421;28;20137;-83
2023/03/23 07:11:24;;;;;;;13.98;5.03;;;;;;;10.94;100.00;100029.84;5007796;28;20022;-82
2023/03/23 07:13:51;;;;;;;19.05;6.13;;;;;;;10.95;100.00;100036.91;5009166;28;20037;-82
2023/03/23 07:16:18;;;;;;;20.05;5.45;;;;;;;10.96;100.00;100030.59;5034186;28;20041;-83
2023/03/23 07:18:45;;;;;;;14.15;4.53;;;;;;;11.03;100.00;100029.19;5024433;28;20033;-83
2023/03/23 07:21:13;;;;;;;19.70;5.32;;;;;;;11.15;100.00;100030.16;5012605;28;20103;-85
2023/03/23 07:23:41;;;;;;;19.23;5.40;;;;;;;11.25;100.00;100034.72;5013368;28;20033;-81
2023/03/23 07:26:15;;;;;;;17.45;4.35;;;;;;;11.29;100.00;100024.66;5010347;28;20186;-80
2023/03/23 07:28:48;;;;;;;19.42;4.97;;;;;;;11.30;100.00;100041.59;5023625;28;20172;-85
2023/03/23 07:31:22;;;;;;;18.85;4.22;;;;;;;11.28;100.00;100039.00;5008198;28;20414;-80
2023/03/23 07:33:50;;;;;;;18.05;4.22;;;;;;;11.23;100.00;100046.50;5035161;28;20114;-81
2023/03/23 07:36:21;;;;;;;16.20;4.05;;;;;;;11.20;100.00;100046.69;5028592;28;20128;-85
2023/03/23 07:38:48;;;;;;;14.80;3.80;;;;;;;11.12;100.00;100062.44;5008756;28;20038;-83
2023/03/23 07:41:15;;;;;;;19.42;4.63;;;;;;;11.13;100.00;100062.31;5025893;28;20060;-80
2023/03/23 07:43:43;;;;;;;15.88;4.00;;;;;;;11.12;100.00;100047.25;5024040;28;20117;-82
2023/03/23 07:46:09;;;;;;;14.18;3.65;;;;;;;11.13;100.00;100054.31;5026164;28;20152;-86
2023/03/23 07:48:48;;;;;;;16.88;4.15;;;;;;;11.22;100.00;100056.34;5005837;28;20430;-82
2023/03/23 07:51:16;;;;;;;14.40;3.97;;;;;;;11.29;100.00;100058.56;5021601;28;20133;-82
2023/03/23 07:53:47;;;;;;;19.60;4.85;;;;;;;11.36;100.00;100057.16;4981406;28;20116;-85
2023/03/23 07:56:35;;;;;;;21.15;4.78;;;;;;;11.32;100.00;100050.34;5019430;28;20081;-82
2023/03/23 07:59:23;;;;;;;20.95;3.88;;;;;;;11.27;100.00;100052.47;5032343;28;20065;-83
2023/03/23 08:01:50;;;;;;;14.93;3.95;;;;;;;11.35;100.00;100050.97;5031822;28;20064;-82
2023/03/23 08:04:29;;;;;;;18.83;3.60;;;;;;;11.51;100.00;100061.41;5015892;28;20056;-79
2023/03/23 08:07:12;;;;;;;12.00;3.65;;;;;;;11.55;100.00;100067.38;5019585;28;20025;-81
2023/03/23 08:10:02;;;;;;;17.27;3.97;;;;;;;11.52;100.00;100072.94;5032767;28;20041;-82
2023/03/23 08:12:43;;;;;;;15.77;3.57;;;;;;;11.67;100.00;100071.00;5026721;28;20045;-82
2023/03/23 08:15:37;;;;;;;10.93;3.38;;;;;;;11.73;100.00;100082.09;5008866;28;20124;-79
2023/03/23 08:18:09;;;;;;;16.95;5.18;;;;;;;11.76;100.00;100075.66;5014468;28;20042;-83
2023/03/23 08:20:55;;;;;;;15.02;3.53;;;;;;;11.80;100.00;100067.34;5015660;28;20138;-81
2023/03/23 08:23:46;;;;;;;15.20;4.50;;;;;;;11.74;100.00;100074.94;5006791;28;20202;-80
2023/03/23 08:26:39;;;;;;;10.65;3.00;;;;;;;11.75;100.00;100073.97;5000398;28;20589;-81
2023/03/23 08:29:45;;;;;;;15.45;3.35;;;;;;;11.91;100.00;100076.41;5001853;28;20128;-81
2023/03/23 08:32:20;;;;;;;16.13;3.80;;;;;;;12.01;100.00;100069.44;5029763;28;20141;-79
2023/03/23 08:34:47;;;;;;;16.35;4.13;;;;;;;12.20;100.00;100076.94;5011855;28;20037;-79
2023/03/23 08:37:24;;;;;;;15.20;3.63;;;;;;;12.52;100.00;100087.03;5018058;28;20077;-81
2023/03/23 08:39:57;;;;;;;14.40;3.80;;;;;;;12.32;100.00;100088.53;5022365;28;20037;-81
2023/03/23 08:42:32;;;;;;;16.75;3.80;;;;;;;12.14;100.00;100090.78;5016083;28;20058;-82
2023/03/23 08:45:28;;;;;;;17.40;3.80;;;;;;;12.49;100.00;100089.97;4983616;28;20042;-81
2023/03/23 08:47:55;;;;;;;15.73;4.45;;;;;;;13.34;100.00;100098.59;5028493;28;20053;-82
2023/03/23 08:50:39;;;;;;;14.18;3.10;;;;;;;13.68;100.00;100105.75;5028444;28;20033;-82
2023/03/23 08:53:55;;;;;;;13.30;3.38;;;;;;;13.83;100.00;100109.03;5012799;28;20082;-82
2023/03/23 08:56:45;;;;;;;13.60;3.55;;;;;;;14.26;100.00;100103.72;5028332;28;20060;-80
2023/03/23 08:59:25;;;;;;;19.92;4.10;;;;;;;14.47;100.00;100102.91;5022618;28;20057;-81
2023/03/23 09:02:23;;;;;;;14.90;3.35;;;;;;;14.61;100.00;100099.97;5015386;28;20414;-81
2023/03/23 09:04:54;;;;;;;12.73;3.25;;;;;;;14.15;100.00;100101.06;5013248;28;20045;-81
2023/03/23 09:07:49;;;;;;;16.05;3.75;;;;;;;13.62;100.00;100099.06;5027434;28;20391;-81
2023/03/23 09:10:16;;;;;;;19.17;5.05;;;;;;;13.62;100.00;100117.00;5028363;28;20033;-81
2023/03/23 09:12:43;;;;;;;16.65;3.97;;;;;;;13.46;100.00;100112.00;5009385;28;20029;-80
2023/03/23 09:15:15;;;;;;;21.00;5.07;;;;;;;13.62;100.00;100109.78;5025976;28;20049;-80
2023/03/23 09:17:47;;;;;;;16.50;3.92;;;;;;;13.65;100.00;100111.41;5023029;28;20029;-81
2023/03/23 09:20:16;;;;;;;17.13;4.13;;;;;;;14.06;100.00;100110.72;5025452;28;20034;-81
2023/03/23 09:22:44;;;;;;;18.42;3.97;;;;;;;14.26;100.00;100102.88;5027748;28;20104;-79
2023/03/23 09:25:14;;;;;;;20.85;3.92;;;;;;;14.79;100.00;100112.81;5027738;28;20052;-84
2023/03/23 09:27:41;;;;;;;16.08;4.05;;;;;;;14.89;100.00;100119.09;5046171;28;20131;-81
2023/03/23 09:30:10;;;;;;;17.20;3.67;;;;;;;15.32;100.00;100104.66;5025069;28;20067;-83
2023/03/23 09:32:36;;;;;;;17.90;4.15;;;;;;;15.85;100.00;100126.00;5025274;28;20109;-78
2023/03/23 09:35:07;;;;;;;17.60;3.80;;;;;;;16.40;100.00;100125.56;5008110;28;20071;-79
2023/03/23 09:37:35;;;;;;;19.25;3.88;;;;;;;16.21;100.00;100109.38;5032180;28;20041;-82
2023/03/23 09:40:03;;;;;;;21.65;3.85;;;;;;;15.67;100.00;100115.03;5025958;28;20042;-81
2023/03/23 09:42:36;;;;;;;13.85;4.28;;;;;;;15.24;100.00;100128.66;5008601;28;20079;-80
2023/03/23 09:45:23;;;;;;;19.05;3.45;;;;;;;15.25;100.00;100139.28;5028168;28;20035;-81
2023/03/23 09:47:55;;;;;;;16.35;3.40;;;;;;;15.48;100.00;100142.66;5021176;28;20033;-82
2023/03/23 09:50:31;;;;;;;18.83;3.90;;;;;;;14.87;100.00;100137.19;5026941;28;20041;-82
2023/03/23 09:53:19;;;;;;;14.13;4.00;;;;;;;14.77;100.00;100147.03;5030963;28;20036;-83
2023/03/23 09:55:48;;;;;;;18.10;3.92;;;;;;;14.95;100.00;100134.72;5010008;28;20025;-78
2023/03/23 09:58:16;;;;;;;20.52;3.88;;;;;;;14.77;100.00;100141.66;5036205;28;20053;-80
2023/03/23 10:00:52;;;;;;;22.70;3.67;;;;;;;14.48;100.00;100148.44;5025232;28;20025;-80
2023/03/23 10:03:26;;;;;;;17.52;3.17;;;;;;;14.25;100.00;100165.59;5023875;28;20065;-80
2023/03/23 10:05:54;;;;;;;16.65;3.70;;;;;;;14.37;100.00;100161.03;5020820;28;20056;-82
2023/03/23 10:08:22;;;;;;;11.40;3.03;;;;;;;14.13;100.00;100159.41;5024879;28;20563;-82
2023/03/23 10:11:00;;;;;;;17.65;3.38;;;;;;;14.03;100.00;100164.63;5029785;28;20029;-84
2023/03/23 10:14:06;;;;;;;15.15;3.40;;;;;;;14.89;100.00;100148.66;5027497;28;20036;-80
2023/03/23 10:16:48;;;;;;;13.23;3.97;;;;;;;15.56;100.00;100159.97;4989362;28;20369;-78
2023/03/23 10:19:23;;;;;;;16.42;5.07;;;;;;;16.44;100.00;100171.94;5033434;28;20121;-79
2023/03/23 10:22:06;;;;;;;16.90;3.65;;;;;;;16.59;100.00;100177.78;5020866;28;20514;-79
2023/03/23 10:24:54;;;;;;;16.55;3.10;;;;;;;16.63;100.00;100171.94;5018766;28;20045;-80
2023/03/23 10:27:29;;;;;;;12.27;3.28;;;;;;;16.51;100.00;100177.59;5033356;28;20093;-80
2023/03/23 10:30:23;;;;;;;17.27;3.13;;;;;;;16.32;100.00;100194.59;5015561;28;20123;-79
2023/03/23 10:33:05;;;;;;;16.83;3.03;;;;;;;16.21;100.00;100188.31;5019882;28;20086;-82
2023/03/23 10:36:04;;;;;;;13.35;2.67;;;;;;;16.27;100.00;100181.53;5020432;28;20033;-81
2023/03/23 10:38:45;;;;;;;15.82;2.92;;;;;;;16.25;100.00;100173.59;5014269;28;20045;-80
2023/03/23 10:41:16;;;;;;;15.52;2.88;;;;;;;16.07;100.00;100175.25;5029906;28;20029;-81
2023/03/23 10:43:43;;;;;;;18.23;3.65;;;;;;;16.07;100.00;100186.03;5030171;28;20025;-80
2023/03/23 10:46:39;;;;;;;15.65;3.78;;;;;;;16.05;100.00;100166.47;5014746;28;20084;-81
2023/03/23 10:49:30;;;;;;;15.98;2.88;;;;;;;16.15;100.00;100183.47;5021015;28;20051;-81
2023/03/23 10:51:59;;;;;;;;;;;;;;;16.10;100.00;100180.34;5022959;28;20022;-76
2023/03/23 10:54:33;;;;;;;17.13;3.88;;;;;;;16.34;100.00;100176.44;5027480;28;19920;-78
2023/03/23 10:56:59;;;;;;;15.05;3.65;;;;;;;15.70;100.00;100190.06;5021811;28;20037;-81
2023/03/23 10:59:32;;;;;;;20.23;4.05;;;;;;;15.16;100.00;100191.16;5019953;28;20034;-83
2023/03/23 11:02:05;;;;;;;17.67;4.45;;;;;;;14.80;100.00;100193.31;5017502;28;20069;-80
2023/03/23 11:04:34;;;;;;;17.52;4.20;;;;;;;15.64;100.00;100203.22;5005974;28;20042;-80
2023/03/23 11:07:02;;;;;;;22.83;5.25;;;;;;;15.55;100.00;100190.56;5009228;28;20026;-80
2023/03/23 11:09:51;;;;;;;18.60;4.00;;;;;;;15.14;100.00;100189.59;5012102;28;20120;-82
2023/03/23 11:12:22;;;;;;;14.77;3.17;;;;;;;14.54;100.00;100195.44;5020059;28;20123;-79
2023/03/23 11:14:49;;;;;;;21.38;4.47;;;;;;;14.72;100.00;100190.38;5015088;28;20030;-80
2023/03/23 11:17:27;;;;;;;27.77;3.97;;;;;;;15.30;100.00;100190.84;5031605;28;20029;-80
2023/03/23 11:19:54;;;;;;;22.33;3.58;;;;;;;15.49;100.00;100182.03;5016975;28;20052;-79
2023/03/23 11:22:24;;;;;;;19.40;3.22;;;;;;;15.81;100.00;100196.41;5037049;28;20044;-79
2023/03/23 11:24:59;;;;;;;17.15;2.90;;;;;;;15.89;100.00;100189.34;5022891;28;20025;-79
2023/03/23 11:27:26;;;;;;;12.50;3.22;;;;;;;15.78;100.00;100184.03;5031067;28;20060;-80
2023/03/23 11:30:17;;;;;;;15.18;3.60;;;;;;;15.24;100.00;100187.81;5028774;28;20394;-79
2023/03/23 11:32:45;;;;;;;21.45;3.78;;;;;;;15.10;100.00;100189.84;5031869;28;20154;-79
2023/03/23 11:35:23;;;;;;;15.65;3.47;;;;;;;15.21;100.00;100180.88;5020406;28;20033;-80
2023/03/23 11:37:58;;;;;;;13.93;2.90;;;;;;;15.55;100.00;100195.97;5023534;28;20068;-79
2023/03/23 11:40:31;;;;;;;19.23;3.30;;;;;;;15.68;100.00;100204.66;5024934;28;20390;-81
2023/03/23 11:43:01;;;;;;;17.38;3.75;;;;;;;15.35;100.00;100190.44;5017741;28;20128;-79
2023/03/23 11:45:40;;;;;;;22.02;4.20;;;;;;;15.12;100.00;100187.88;5016277;28;20121;-80
2023/03/23 11:48:22;;;;;;;18.27;3.30;;;;;;;14.91;100.00;100192.41;5020241;28;20061;-81
2023/03/23 11:50:52;;;;;;;19.38;3.80;;;;;;;14.72;100.00;100204.69;5015628;28;20099;-81
2023/03/23 11:53:40;;;;;;;23.08;4.60;;;;;;;14.72;100.00;100191.25;5028464;28;20107;-82